Time;durP1;ratioP1;P1;durP2;ratioP2;P2;SDS_P1;SDS_P2;PMS_P1;PMS_P2;Temp;Humidity;BMP_temperature;BMP_pressure;BME280_temperature;BME280_humidity;BME280_pressure;Samples;Min_cycle;Max_cycle;Signal;HPM_P1;HPM_P2
2023/12/08 00:00:45;;;;;;;;;;;3.20;99.90;;;;;;2615684;54;19958;-66
2023/12/08 00:03:15;;;;;;;;;;;3.20;99.90;;;;;;2616128;39;20349;-66
2023/12/08 00:05:45;;;;;;;;;;;3.20;99.90;;;;;;2616853;54;19973;-66
2023/12/08 00:08:15;;;;;;;;;;;3.30;99.90;;;;;;2615617;49;19947;-67
2023/12/08 00:10:44;;;;;;;;;;;3.30;99.90;;;;;;2615297;47;19958;-67
2023/12/08 00:13:14;;;;;;;;;;;3.30;99.90;;;;;;2616183;54;19973;-67
2023/12/08 00:15:47;;;;;;;;;;;3.40;99.90;;;;;;2616902;54;19942;-68
2023/12/08 00:18:16;;;;;;;;;;;3.40;99.90;;;;;;2615802;47;19935;-67
2023/12/08 00:20:44;;;;;;;;;;;3.40;99.90;;;;;;2616166;39;20357;-68
2023/12/08 00:23:14;;;;;;;;;;;3.40;99.90;;;;;;2614869;54;19951;-67
2023/12/08 00:25:44;;;;;;;;;;;3.40;99.90;;;;;;2613367;54;19958;-67
2023/12/08 00:28:14;;;;;;;;;;;3.40;99.90;;;;;;2614656;47;19951;-66
2023/12/08 00:30:43;;;;;;;;;;;3.50;99.90;;;;;;2616515;54;19945;-67
2023/12/08 00:33:16;;;;;;;;;;;3.40;99.90;;;;;;2615760;54;19970;-66
2023/12/08 00:35:48;;;;;;;;;;;3.50;99.90;;;;;;2616103;54;19957;-68
2023/12/08 00:38:17;;;;;;;;;;;3.50;99.90;;;;;;2615308;54;19946;-68
2023/12/08 00:40:47;;;;;;;;;;;4.10;99.90;;;;;;2614806;54;19954;-68
2023/12/08 00:43:17;;;;;;;;;;;3.40;99.90;;;;;;2615409;47;19939;-66
2023/12/08 00:45:46;;;;;;;;;;;3.40;99.90;;;;;;2615857;52;19938;-67
2023/12/08 00:48:19;;;;;;;;;;;3.40;99.90;;;;;;2615324;39;20353;-67
2023/12/08 00:50:48;;;;;;;;;;;3.40;99.90;;;;;;2614702;54;19947;-67
2023/12/08 00:53:18;;;;;;;;;;;3.40;99.90;;;;;;2614843;54;20034;-67
2023/12/08 00:55:48;;;;;;;;;;;3.50;99.90;;;;;;2615143;47;19951;-69
2023/12/08 00:58:18;;;;;;;;;;;3.50;99.90;;;;;;2614813;47;19961;-65
2023/12/08 01:00:47;;;;;;;;;;;3.50;99.90;;;;;;2615262;47;19946;-66
2023/12/08 01:03:19;;;;;;;;;;;3.50;99.90;;;;;;2617132;39;20348;-67
2023/12/08 01:05:49;;;;;;;;;;;3.50;99.90;;;;;;2616692;47;20442;-67
2023/12/08 01:08:19;;;;;;;;;;;3.50;99.90;;;;;;2616840;54;20062;-67
2023/12/08 01:10:48;;;;;;;;;;;3.50;99.90;;;;;;2615942;54;19950;-67
2023/12/08 01:13:19;;;;;;;;;;;3.50;99.90;;;;;;2616234;39;20330;-68
2023/12/08 01:15:49;;;;;;;;;;;3.50;99.90;;;;;;2616889;54;19942;-68
2023/12/08 01:18:22;;;;;;;;;;;3.50;99.90;;;;;;2614953;48;19970;-67
2023/12/08 01:20:53;;;;;;;;;;;3.50;99.90;;;;;;2615913;54;20449;-67
2023/12/08 01:23:23;;;;;;;;;;;3.50;99.90;;;;;;2616695;54;20026;-67
2023/12/08 01:25:53;;;;;;;;;;;3.50;99.90;;;;;;2616592;54;19946;-67
2023/12/08 01:28:23;;;;;;;;;;;3.50;99.90;;;;;;2615965;54;19946;-67
2023/12/08 01:30:53;;;;;;;;;;;3.50;99.90;;;;;;2615761;39;20300;-68
2023/12/08 01:33:25;;;;;;;;;;;3.50;99.90;;;;;;2616080;54;19962;-67
2023/12/08 01:35:55;;;;;;;;;;;3.50;99.90;;;;;;2613217;54;20684;-69
2023/12/08 01:38:45;;;;;;;;;;;3.60;99.90;;;;;;2615159;49;20422;-66
2023/12/08 01:41:15;;;;;;;;;;;3.60;99.90;;;;;;2617273;31;20427;-66
2023/12/08 01:43:45;;;;;;;;;;;3.60;99.90;;;;;;2615891;54;20008;-67
2023/12/08 01:46:16;;;;;;;;;;;3.60;99.90;;;;;;2617011;54;19946;-66
2023/12/08 01:48:48;;;;;;;;;;;3.70;99.90;;;;;;2614871;39;20361;-67
2023/12/08 01:51:18;;;;;;;;;;;3.70;99.90;;;;;;2615947;54;19947;-67
2023/12/08 01:53:48;;;;;;;;;;;3.70;99.90;;;;;;2616019;47;19939;-67
2023/12/08 01:56:18;;;;;;;;;;;3.70;99.90;;;;;;2622012;54;19954;-68
2023/12/08 01:58:48;;;;;;;;;;;3.70;99.90;;;;;;2621155;54;19938;-67
2023/12/08 02:01:18;;;;;;;;;;;3.70;99.90;;;;;;2618833;47;20081;-67
2023/12/08 02:03:51;;;;;;;;;;;3.70;99.90;;;;;;2620742;54;19954;-67
2023/12/08 02:06:21;;;;;;;;;;;3.70;99.90;;;;;;2619884;54;20465;-68
2023/12/08 02:08:51;;;;;;;;;;;3.60;99.90;;;;;;2616241;54;19942;-67
2023/12/08 02:11:21;;;;;;;;;;;3.70;99.90;;;;;;2617204;54;19942;-68
2023/12/08 02:13:51;;;;;;;;;;;3.70;99.90;;;;;;2610136;47;20464;-67
2023/12/08 02:16:21;;;;;;;;;;;3.70;99.90;;;;;;2616458;47;19953;-67
2023/12/08 02:18:53;;;;;;;;;;;3.60;99.90;;;;;;2615608;47;19946;-67
2023/12/08 02:21:23;;;;;;;;;;;3.70;99.90;;;;;;2617656;54;20083;-67
2023/12/08 02:23:55;;;;;;;;;;;3.70;99.90;;;;;;2615515;54;19961;-65
2023/12/08 02:26:25;;;;;;;;;;;3.70;99.90;;;;;;2610236;54;19953;-68
2023/12/08 02:28:55;;;;;;;;;;;3.70;99.90;;;;;;2613713;47;20037;-67
2023/12/08 02:31:27;;;;;;;;;;;3.70;99.90;;;;;;2616704;54;19946;-69
2023/12/08 03:21:32;;;;;;;;;;;3.70;99.90;;;;;;2611289;39;21352;-81
2023/12/08 03:24:02;;;;;;;;;;;3.90;99.90;;;;;;2631404;39;20376;-81
2023/12/08 03:26:32;;;;;;;;;;;3.90;99.90;;;;;;2629011;46;19942;-82
2023/12/08 03:29:02;;;;;;;;;;;4.10;99.90;;;;;;2628995;54;19966;-82
2023/12/08 03:31:33;;;;;;;;;;;3.90;99.90;;;;;;2629813;47;20038;-82
2023/12/08 03:34:03;;;;;;;;;;;3.90;99.90;;;;;;2629893;54;20081;-83
2023/12/08 03:36:36;;;;;;;;;;;3.90;99.90;;;;;;2629662;54;19923;-83
2023/12/08 03:39:06;;;;;;;;;;;4.40;99.90;;;;;;2629250;54;19942;-83
2023/12/08 03:41:36;;;;;;;;;;;3.90;99.90;;;;;;2629504;47;19939;-82
2023/12/08 03:44:06;;;;;;;;;;;4.30;99.90;;;;;;2629617;47;19978;-83
2023/12/08 03:46:36;;;;;;;;;;;3.90;99.90;;;;;;2628577;47;19953;-84
2023/12/08 03:49:06;;;;;;;;;;;3.90;99.90;;;;;;2636013;39;20397;-83
2023/12/08 03:51:38;;;;;;;;;;;4.10;99.90;;;;;;2629597;54;19958;-82
2023/12/08 03:54:08;;;;;;;;;;;3.90;99.90;;;;;;2629750;54;19947;-83
2023/12/08 03:56:38;;;;;;;;;;;3.90;99.90;;;;;;2629357;47;19947;-82
2023/12/08 03:59:08;;;;;;;;;;;3.80;99.90;;;;;;2629374;47;19949;-82
2023/12/08 04:01:38;;;;;;;;;;;4.30;99.90;;;;;;2629220;54;19949;-85
2023/12/08 04:04:10;;;;;;;;;;;3.90;99.90;;;;;;2629558;47;20697;-82
2023/12/08 04:06:56;;;;;;;;;;;3.90;99.90;;;;;;2629599;47;19951;-83
2023/12/08 04:09:26;;;;;;;;;;;3.90;99.90;;;;;;2629599;47;19952;-84
2023/12/08 04:11:58;;;;;;;;;;;4.40;99.90;;;;;;2629583;47;19950;-83
2023/12/08 04:14:28;;;;;;;;;;;3.90;99.90;;;;;;2629352;54;19938;-83
2023/12/08 04:16:58;;;;;;;;;;;3.80;99.90;;;;;;2629355;47;19950;-82
2023/12/08 04:19:28;;;;;;;;;;;3.80;99.90;;;;;;2629408;54;19954;-81
2023/12/08 04:22:01;;;;;;;;;;;3.70;99.90;;;;;;2629480;54;19927;-82
2023/12/08 04:24:31;;;;;;;;;;;3.70;99.90;;;;;;2629796;47;19975;-83
2023/12/08 04:27:01;;;;;;;;;;;3.70;99.90;;;;;;2629708;47;19931;-83
2023/12/08 04:29:31;;;;;;;;;;;3.90;99.90;;;;;;2629233;47;19953;-83
2023/12/08 04:32:02;;;;;;;;;;;3.70;99.90;;;;;;2632390;39;20315;-83
2023/12/08 04:34:32;;;;;;;;;;;3.70;99.90;;;;;;2629549;54;19927;-83
2023/12/08 04:37:06;;;;;;;;;;;3.70;99.90;;;;;;2629350;47;19947;-83
2023/12/08 04:39:36;;;;;;;;;;;3.70;99.90;;;;;;2630228;54;19972;-83
2023/12/08 04:42:06;;;;;;;;;;;3.70;99.90;;;;;;2630173;46;19933;-81
2023/12/08 04:44:36;;;;;;;;;;;3.60;99.90;;;;;;2629581;47;19927;-81
2023/12/08 04:47:06;;;;;;;;;;;3.70;99.90;;;;;;2628393;46;20497;-80
2023/12/08 04:49:36;;;;;;;;;;;3.70;99.90;;;;;;2627269;54;19978;-80
2023/12/08 04:52:13;;;;;;;;;;;3.70;99.90;;;;;;2627754;54;20011;-81
2023/12/08 04:54:43;;;;;;;;;;;3.80;99.90;;;;;;2627345;47;20465;-80
2023/12/08 04:57:12;;;;;;;;;;;3.70;99.90;;;;;;2628410;54;19942;-83
2023/12/08 04:59:42;;;;;;;;;;;3.70;99.90;;;;;;2633946;39;20661;-80
2023/12/08 05:02:12;;;;;;;;;;;3.40;99.90;;;;;;2629510;46;19950;-81
2023/12/08 05:04:43;;;;;;;;;;;3.70;99.90;;;;;;2630149;47;19923;-84
2023/12/08 05:07:16;;;;;;;;;;;3.90;99.90;;;;;;2630341;47;19943;-85
2023/12/08 05:09:46;;;;;;;;;;;4.00;99.90;;;;;;2630472;54;19952;-84
2023/12/08 05:12:16;;;;;;;;;;;3.70;99.90;;;;;;2630342;54;19977;-83
2023/12/08 05:14:46;;;;;;;;;;;3.60;99.90;;;;;;2630231;47;19943;-85
2023/12/08 05:17:16;;;;;;;;;;;4.70;99.90;;;;;;2628680;46;19942;-84
2023/12/08 05:19:45;;;;;;;;;;;4.00;99.90;;;;;;2629688;47;19946;-79
2023/12/08 05:22:18;;;;;;;;;;;3.50;99.90;;;;;;2629567;46;20495;-81
2023/12/08 05:24:48;;;;;;;;;;;3.60;99.90;;;;;;2629681;47;19942;-81
2023/12/08 05:27:19;;;;;;;;;;;3.70;99.90;;;;;;2629799;54;20761;-83
2023/12/08 05:29:49;;;;;;;;;;;3.60;99.90;;;;;;2629815;47;19970;-83
2023/12/08 05:32:19;;;;;;;;;;;3.60;99.90;;;;;;2629938;54;19943;-82
2023/12/08 05:34:50;;;;;;;;;;;3.70;99.90;;;;;;2629838;47;19942;-82
2023/12/08 05:37:23;;;;;;;;;;;3.60;99.90;;;;;;2629772;46;19947;-83
2023/12/08 05:39:53;;;;;;;;;;;3.60;99.90;;;;;;2629648;47;19948;-81
2023/12/08 05:42:24;;;;;;;;;;;3.50;99.90;;;;;;2629982;47;19958;-83
2023/12/08 05:44:53;;;;;;;;;;;4.70;99.90;;;;;;2629851;46;19981;-83
2023/12/08 05:47:24;;;;;;;;;;;3.90;99.90;;;;;;2629679;54;19965;-83
2023/12/08 05:49:55;;;;;;;;;;;3.30;99.90;;;;;;2629692;46;19994;-84
2023/12/08 05:52:27;;;;;;;;;;;3.20;99.90;;;;;;2629877;54;19950;-82
2023/12/08 05:54:57;;;;;;;;;;;3.50;99.90;;;;;;2630004;54;20056;-79
2023/12/08 05:57:29;;;;;;;;;;;3.20;99.90;;;;;;2626893;47;19942;-77
2023/12/08 06:00:05;;;;;;;;;;;3.30;99.90;;;;;;2629037;54;19926;-80
2023/12/08 06:02:35;;;;;;;;;;;3.30;99.90;;;;;;2630005;39;20617;-79
2023/12/08 06:05:05;;;;;;;;;;;3.40;99.90;;;;;;2629636;46;19927;-83
2023/12/08 06:07:37;;;;;;;;;;;3.30;99.90;;;;;;2629934;54;19957;-84
2023/12/08 06:10:09;;;;;;;;;;;4.10;99.90;;;;;;2629886;54;20025;-84
2023/12/08 06:12:39;;;;;;;;;;;3.40;99.90;;;;;;2616327;39;20473;-71
2023/12/08 06:15:09;;;;;;;;;;;3.40;99.90;;;;;;2612674;54;19973;-71
2023/12/08 06:17:39;;;;;;;;;;;3.40;99.90;;;;;;2612877;47;19939;-71
2023/12/08 06:20:11;;;;;;;;;;;3.40;99.90;;;;;;2613479;47;19946;-72
2023/12/08 06:22:43;;;;;;;;;;;3.40;99.90;;;;;;2611293;54;19943;-71
2023/12/08 06:25:13;;;;;;;;;;;3.40;99.90;;;;;;2615580;46;19970;-70
2023/12/08 06:27:43;;;;;;;;;;;3.40;99.90;;;;;;2614476;39;20539;-73
2023/12/08 06:30:13;;;;;;;;;;;3.40;99.90;;;;;;2614299;47;19939;-70
2023/12/08 06:32:43;;;;;;;;;;;3.40;99.90;;;;;;2615709;47;19942;-71
2023/12/08 06:35:13;;;;;;;;;;;3.40;99.90;;;;;;2615557;47;19939;-70
2023/12/08 06:37:45;;;;;;;;;;;3.50;99.90;;;;;;2614719;47;19970;-70
2023/12/08 06:40:15;;;;;;;;;;;3.40;99.90;;;;;;2615926;54;19957;-70
2023/12/08 06:42:45;;;;;;;;;;;3.30;99.90;;;;;;2615515;47;19939;-69
2023/12/08 06:45:15;;;;;;;;;;;3.30;99.90;;;;;;2615205;54;19946;-70
2023/12/08 06:47:45;;;;;;;;;;;3.30;99.90;;;;;;2616277;54;19946;-69
2023/12/08 06:50:15;;;;;;;;;;;3.30;99.90;;;;;;2615184;54;20067;-70
2023/12/08 06:52:51;;;;;;;;;;;3.40;99.90;;;;;;2616465;47;19950;-71
2023/12/08 06:55:20;;;;;;;;;;;3.40;99.90;;;;;;2615895;54;19957;-71
2023/12/08 06:57:50;;;;;;;;;;;3.30;99.90;;;;;;2614928;54;19953;-71
2023/12/08 07:00:20;;;;;;;;;;;3.30;99.90;;;;;;2615057;48;19977;-71
2023/12/08 07:02:50;;;;;;;;;;;3.30;99.90;;;;;;2615957;54;19946;-71
2023/12/08 07:05:20;;;;;;;;;;;3.30;99.90;;;;;;2615435;53;19951;-70
2023/12/08 07:07:55;;;;;;;;;;;3.30;99.90;;;;;;2616643;39;20464;-71
2023/12/08 07:10:24;;;;;;;;;;;3.30;99.90;;;;;;2613475;47;19946;-71
2023/12/08 07:12:54;;;;;;;;;;;3.20;99.90;;;;;;2616027;39;20388;-70
2023/12/08 07:15:24;;;;;;;;;;;3.10;99.90;;;;;;2614696;54;19954;-70
2023/12/08 07:17:54;;;;;;;;;;;3.10;99.90;;;;;;2616113;54;19946;-70
2023/12/08 07:20:24;;;;;;;;;;;3.10;99.90;;;;;;2614921;39;20492;-70
2023/12/08 07:22:56;;;;;;;;;;;3.10;99.90;;;;;;2615582;54;19997;-70
2023/12/08 07:25:26;;;;;;;;;;;3.20;99.90;;;;;;2616379;54;20042;-71
2023/12/08 07:27:55;;;;;;;;;;;3.20;99.90;;;;;;2617883;47;19957;-71
2023/12/08 07:30:25;;;;;;;;;;;3.20;99.90;;;;;;2615663;54;19957;-70
2023/12/08 07:32:55;;;;;;;;;;;3.20;99.90;;;;;;2617671;54;20011;-69
2023/12/08 07:35:25;;;;;;;;;;;3.20;99.90;;;;;;2615510;53;19966;-69
2023/12/08 07:37:57;;;;;;;;;;;3.20;99.90;;;;;;2616625;47;19953;-70
2023/12/08 07:40:26;;;;;;;;;;;3.30;99.90;;;;;;2615914;47;19946;-69
2023/12/08 07:42:56;;;;;;;;;;;3.30;99.90;;;;;;2616205;53;19935;-70
2023/12/08 07:45:25;;;;;;;;;;;3.30;99.90;;;;;;2615501;51;19955;-70
2023/12/08 07:47:55;;;;;;;;;;;3.30;99.90;;;;;;2615631;54;19969;-70
2023/12/08 07:50:26;;;;;;;;;;;3.40;99.90;;;;;;2615097;47;19947;-71
2023/12/08 07:52:58;;;;;;;;;;;3.40;99.90;;;;;;2615829;50;19942;-70
2023/12/08 07:55:28;;;;;;;;;;;3.40;99.90;;;;;;2615828;47;20062;-59
2023/12/08 07:57:57;;;;;;;;;;;3.40;99.90;;;;;;2614499;47;19950;-58
2023/12/08 08:00:27;;;;;;;;;;;3.40;99.90;;;;;;2614837;39;20496;-58
2023/12/08 08:02:57;;;;;;;;;;;3.40;99.90;;;;;;2615929;54;19939;-60
2023/12/08 08:05:26;;;;;;;;;;;3.40;99.90;;;;;;2614976;54;20030;-60
2023/12/08 08:07:59;;;;;;;;;;;3.40;99.90;;;;;;2614761;50;19950;-60
2023/12/08 08:10:28;;;;;;;;;;;3.40;99.90;;;;;;2614735;47;19953;-59
2023/12/08 08:13:00;;;;;;;;;;;3.40;99.90;;;;;;2613482;53;20433;-61
2023/12/08 08:15:30;;;;;;;;;;;3.50;99.90;;;;;;2615460;54;19954;-60
2023/12/08 08:18:00;;;;;;;;;;;3.50;99.90;;;;;;2614921;54;20442;-61
2023/12/08 08:20:30;;;;;;;;;;;3.40;99.90;;;;;;2613385;54;19946;-60
2023/12/08 08:23:02;;;;;;;;;;;3.50;99.90;;;;;;2612021;54;22288;-70
2023/12/08 08:25:31;;;;;;;;;;;3.50;99.90;;;;;;2614683;47;19947;-69
2023/12/08 08:28:02;;;;;;;;;;;3.50;99.90;;;;;;2615311;54;21161;-69
2023/12/08 08:30:32;;;;;;;;;;;3.50;99.90;;;;;;2614991;39;20111;-70
2023/12/08 08:33:02;;;;;;;;;;;3.60;99.90;;;;;;2614246;39;21516;-70
2023/12/08 08:35:32;;;;;;;;;;;3.60;99.90;;;;;;2616567;39;20488;-69
2023/12/08 08:38:04;;;;;;;;;;;3.60;99.90;;;;;;2614946;54;20026;-70
2023/12/08 08:40:34;;;;;;;;;;;3.60;99.90;;;;;;2616151;54;19938;-69
2023/12/08 08:43:04;;;;;;;;;;;3.60;99.90;;;;;;2615778;54;19952;-70
2023/12/08 08:45:33;;;;;;;;;;;3.70;99.90;;;;;;2615367;54;19958;-70
2023/12/08 08:48:04;;;;;;;;;;;3.60;99.90;;;;;;2616132;39;20377;-70
2023/12/08 08:50:34;;;;;;;;;;;3.40;99.90;;;;;;2615991;48;19951;-70
2023/12/08 08:53:19;;;;;;;;;;;3.40;99.90;;;;;;2615791;47;19946;-71
2023/12/08 08:55:49;;;;;;;;;;;3.40;99.90;;;;;;2614937;47;19947;-70
2023/12/08 08:58:19;;;;;;;;;;;3.40;99.90;;;;;;2613951;47;19992;-69
2023/12/08 09:00:49;;;;;;;;;;;3.50;99.90;;;;;;2614906;51;19954;-70
2023/12/08 09:03:19;;;;;;;;;;;3.50;99.90;;;;;;2614783;54;20510;-70
2023/12/08 09:05:48;;;;;;;;;;;3.50;99.90;;;;;;2616086;54;19946;-69
2023/12/08 09:08:21;;;;;;;;;;;3.60;99.90;;;;;;2614703;47;19953;-70
2023/12/08 09:10:52;;;;;;;;;;;3.60;99.90;;;;;;2615514;54;19957;-70
2023/12/08 09:13:23;;;;;;;;;;;3.60;99.90;;;;;;2614775;47;20007;-71
2023/12/08 09:15:53;;;;;;;;;;;3.60;99.90;;;;;;2614903;54;19947;-71
2023/12/08 09:18:22;;;;;;;;;;;3.60;99.90;;;;;;2614304;47;19945;-71
2023/12/08 09:20:52;;;;;;;;;;;3.60;99.90;;;;;;2615203;54;19969;-71
2023/12/08 09:23:24;;;;;;;;;;;3.70;99.90;;;;;;2612441;54;19974;-70
2023/12/08 09:25:54;;;;;;;;;;;3.70;99.90;;;;;;2615907;47;20453;-70
2023/12/08 09:28:24;;;;;;;;;;;3.70;99.90;;;;;;2614844;54;19954;-70
2023/12/08 09:30:54;;;;;;;;;;;3.70;99.90;;;;;;2614978;46;19955;-70
2023/12/08 09:36:10;;;;;;;;;;;3.70;99.90;;;;;;2614191;54;19953;-72
2023/12/08 09:38:43;;;;;;;;;;;2.90;99.90;;;;;;2616543;47;20450;-71
2023/12/08 09:41:13;;;;;;;;;;;3.80;99.90;;;;;;2616621;47;19946;-72
2023/12/08 09:43:45;;;;;;;;;;;3.70;99.90;;;;;;2616604;54;19943;-72
2023/12/08 09:46:16;;;;;;;;;;;3.80;99.90;;;;;;2616766;47;19958;-72
2023/12/08 09:48:47;;;;;;;;;;;3.80;99.90;;;;;;2615607;52;19981;-72
2023/12/08 09:51:17;;;;;;;;;;;3.80;99.90;;;;;;2616462;54;19938;-72
2023/12/08 09:53:50;;;;;;;;;;;3.90;99.90;;;;;;2617365;54;19978;-71
2023/12/08 09:56:20;;;;;;;;;;;3.90;99.90;;;;;;2617832;39;20612;-70
2023/12/08 09:58:51;;;;;;;;;;;3.80;99.90;;;;;;2616351;54;19946;-71
2023/12/08 10:01:20;;;;;;;;;;;3.90;99.90;;;;;;2614885;47;19946;-71
2023/12/08 10:03:51;;;;;;;;;;;3.90;99.90;;;;;;2617506;54;19954;-70
2023/12/08 10:06:23;;;;;;;;;;;3.90;99.90;;;;;;2615724;54;20037;-71
2023/12/08 10:08:55;;;;;;;;;;;3.90;99.90;;;;;;2616997;54;19955;-70
2023/12/08 10:11:25;;;;;;;;;;;3.90;99.90;;;;;;2616776;54;20033;-71
2023/12/08 10:13:55;;;;;;;;;;;4.00;99.90;;;;;;2616808;47;19953;-70
2023/12/08 10:16:25;;;;;;;;;;;3.90;99.90;;;;;;2615533;54;19946;-71
2023/12/08 10:19:04;;;;;;;;;;;3.90;99.90;;;;;;2616430;54;19945;-70
2023/12/08 10:21:35;;;;;;;;;;;4.00;99.90;;;;;;2617547;47;20452;-71
2023/12/08 10:24:09;;;;;;;;;;;4.00;99.90;;;;;;2617295;47;19939;-71
2023/12/08 10:26:39;;;;;;;;;;;4.00;99.90;;;;;;2616460;54;19946;-73
2023/12/08 10:29:09;;;;;;;;;;;4.00;99.90;;;;;;2615999;54;20063;-71
2023/12/08 10:31:40;;;;;;;;;;;4.00;99.90;;;;;;2615240;54;19969;-72
2023/12/08 10:34:10;;;;;;;;;;;4.00;99.90;;;;;;2615679;54;19998;-71
2023/12/08 10:36:40;;;;;;;;;;;4.10;99.90;;;;;;2616009;54;19947;-71
2023/12/08 10:39:12;;;;;;;;;;;4.10;99.90;;;;;;2617925;54;19939;-72
2023/12/08 10:41:43;;;;;;;;;;;4.10;99.90;;;;;;2616870;47;19947;-71
2023/12/08 10:44:13;;;;;;;;;;;4.10;99.90;;;;;;2617145;47;20099;-71
2023/12/08 10:46:43;;;;;;;;;;;4.10;99.90;;;;;;2616477;47;19946;-72
2023/12/08 10:49:13;;;;;;;;;;;4.10;99.90;;;;;;2615653;54;19938;-71
2023/12/08 10:51:43;;;;;;;;;;;4.10;99.90;;;;;;2615184;54;19940;-73
2023/12/08 10:54:17;;;;;;;;;;;4.10;99.90;;;;;;2617469;54;19938;-71
2023/12/08 10:56:48;;;;;;;;;;;4.20;99.90;;;;;;2617204;47;19946;-71
2023/12/08 10:59:19;;;;;;;;;;;4.20;99.90;;;;;;2615930;54;21876;-71
2023/12/08 11:01:49;;;;;;;;;;;4.10;99.90;;;;;;2615691;47;19947;-71
2023/12/08 11:04:22;;;;;;;;;;;4.10;99.90;;;;;;2615570;54;19950;-72
2023/12/08 11:06:56;;;;;;;;;;;4.10;99.90;;;;;;2615291;47;19998;-71
2023/12/08 11:09:30;;;;;;;;;;;4.10;99.90;;;;;;2612508;47;20051;-73
2023/12/08 11:12:03;;;;;;;;;;;4.10;99.90;;;;;;2599167;47;19957;-71
2023/12/08 11:14:36;;;;;;;;;;;4.10;99.90;;;;;;2599603;54;19951;-73
2023/12/08 11:17:11;;;;;;;;;;;4.10;99.90;;;;;;2602247;47;19961;-74
2023/12/08 11:19:42;;;;;;;;;;;4.20;99.90;;;;;;2606312;54;19954;-72
2023/12/08 11:22:12;;;;;;;;;;;4.20;99.90;;;;;;2607151;39;20503;-73
2023/12/08 11:24:45;;;;;;;;;;;4.20;99.90;;;;;;2607317;39;20275;-73
2023/12/08 11:27:17;;;;;;;;;;;4.20;99.90;;;;;;2605730;54;19959;-73
2023/12/08 11:29:48;;;;;;;;;;;4.10;99.90;;;;;;2600648;47;19951;-71
2023/12/08 11:32:22;;;;;;;;;;;4.10;99.90;;;;;;2600553;46;19954;-73
2023/12/08 11:34:55;;;;;;;;;;;4.20;99.90;;;;;;2599269;47;19951;-71
2023/12/08 11:37:25;;;;;;;;;;;4.20;99.90;;;;;;2599156;47;19950;-74
2023/12/08 11:40:04;;;;;;;;;;;4.20;99.90;;;;;;2598856;54;19957;-73
2023/12/08 11:42:34;;;;;;;;;;;4.20;99.90;;;;;;2599123;54;19954;-71
2023/12/08 11:45:04;;;;;;;;;;;4.20;99.90;;;;;;2599547;47;19970;-73
2023/12/08 11:47:33;;;;;;;;;;;4.20;99.90;;;;;;2599295;47;19954;-73
2023/12/08 11:50:03;;;;;;;;;;;4.20;99.90;;;;;;2599475;54;20038;-73
2023/12/08 11:52:34;;;;;;;;;;;4.20;99.90;;;;;;2599325;54;19978;-72
2023/12/08 11:55:12;;;;;;;;;;;4.20;99.90;;;;;;2599830;54;19953;-73
2023/12/08 11:57:55;;;;;;;;;;;4.20;99.90;;;;;;2598762;39;20144;-73
2023/12/08 12:00:25;;;;;;;;;;;4.20;99.90;;;;;;2598438;54;20034;-74
2023/12/08 12:02:56;;;;;;;;;;;4.20;99.90;;;;;;2598969;47;19966;-72
2023/12/08 12:05:26;;;;;;;;;;;4.20;99.90;;;;;;2599611;47;19986;-73
2023/12/08 12:07:57;;;;;;;;;;;4.20;99.90;;;;;;2598683;54;19957;-74
2023/12/08 12:10:30;;;;;;;;;;;4.20;99.90;;;;;;2599532;39;20079;-74
2023/12/08 12:13:05;;;;;;;;;;;4.20;99.90;;;;;;2599362;47;20250;-73
2023/12/08 12:15:36;;;;;;;;;;;4.30;99.90;;;;;;2599769;47;20034;-74
2023/12/08 12:18:06;;;;;;;;;;;4.30;99.90;;;;;;2598996;54;20029;-73
2023/12/08 12:20:38;;;;;;;;;;;4.40;99.90;;;;;;2602516;47;19950;-72
2023/12/08 12:23:11;;;;;;;;;;;4.40;99.90;;;;;;2606962;54;19950;-74
2023/12/08 12:25:44;;;;;;;;;;;4.40;99.90;;;;;;2606298;54;20035;-73
2023/12/08 12:28:14;;;;;;;;;;;4.40;99.90;;;;;;2602561;54;19950;-74
2023/12/08 12:30:43;;;;;;;;;;;4.40;99.90;;;;;;2598955;47;19950;-73
2023/12/08 12:33:13;;;;;;;;;;;4.40;99.90;;;;;;2597331;47;19950;-74
2023/12/08 12:35:44;;;;;;;;;;;4.40;99.90;;;;;;2599448;47;19957;-73
2023/12/08 12:38:23;;;;;;;;;;;4.50;99.90;;;;;;2603445;54;19939;-76
2023/12/08 12:40:57;;;;;;;;;;;4.50;99.90;;;;;;2600973;47;19946;-73
2023/12/08 12:43:27;;;;;;;;;;;4.50;99.90;;;;;;2599687;54;19947;-76
2023/12/08 12:45:56;;;;;;;;;;;4.50;99.90;;;;;;2599342;54;19955;-73
2023/12/08 12:48:27;;;;;;;;;;;4.50;99.90;;;;;;2598423;54;19951;-73
2023/12/08 12:50:57;;;;;;;;;;;4.50;99.90;;;;;;2600165;54;19958;-74
2023/12/08 12:53:28;;;;;;;;;;;4.50;99.90;;;;;;2598809;54;19981;-71
2023/12/08 12:56:10;;;;;;;;;;;4.60;99.90;;;;;;2600371;54;19950;-72
2023/12/08 12:58:40;;;;;;;;;;;4.50;99.90;;;;;;2603220;54;19946;-72
2023/12/08 13:01:13;;;;;;;;;;;4.40;99.90;;;;;;2603165;54;19951;-72
2023/12/08 13:03:47;;;;;;;;;;;4.60;99.90;;;;;;2600763;47;19965;-71
2023/12/08 13:06:27;;;;;;;;;;;4.60;99.90;;;;;;2600540;46;19950;-71
2023/12/08 13:08:57;;;;;;;;;;;4.60;99.90;;;;;;2602801;39;20187;-71
2023/12/08 13:11:30;;;;;;;;;;;4.60;99.90;;;;;;2601655;47;20030;-71
2023/12/08 13:13:59;;;;;;;;;;;4.60;99.90;;;;;;2600906;54;19947;-72
2023/12/08 13:16:30;;;;;;;;;;;4.50;99.90;;;;;;2600140;54;19961;-73
2023/12/08 13:19:00;;;;;;;;;;;4.50;99.90;;;;;;2599726;39;20145;-73
2023/12/08 13:21:30;;;;;;;;;;;4.30;99.90;;;;;;2600241;47;19959;-72
2023/12/08 13:24:00;;;;;;;;;;;4.40;99.90;;;;;;2601675;39;20402;-73
2023/12/08 13:26:32;;;;;;;;;;;3.50;99.90;;;;;;2600276;54;19951;-73
2023/12/08 13:29:05;;;;;;;;;;;4.50;99.90;;;;;;2600254;54;19950;-72
2023/12/08 13:31:35;;;;;;;;;;;4.50;99.90;;;;;;2602013;54;19957;-71
2023/12/08 13:34:04;;;;;;;;;;;4.50;99.90;;;;;;2604913;54;19950;-73
2023/12/08 13:36:34;;;;;;;;;;;4.40;99.90;;;;;;2601384;46;19958;-72
2023/12/08 13:39:04;;;;;;;;;;;4.40;99.90;;;;;;2601620;47;20018;-74
2023/12/08 13:41:37;;;;;;;;;;;4.50;99.90;;;;;;2600846;54;19954;-72
2023/12/08 13:44:08;;;;;;;;;;;4.40;99.90;;;;;;2604772;54;19958;-71
2023/12/08 13:46:38;;;;;;;;;;;4.40;99.90;;;;;;2604985;54;19950;-72
2023/12/08 13:49:07;;;;;;;;;;;4.30;99.90;;;;;;2618558;47;19950;-72
2023/12/08 13:51:38;;;;;;;;;;;4.30;99.90;;;;;;2622749;47;19946;-73
2023/12/08 13:54:09;;;;;;;;;;;4.40;99.90;;;;;;2617707;47;19970;-74
2023/12/08 13:56:42;;;;;;;;;;;4.40;99.90;;;;;;2617056;47;19951;-71
2023/12/08 13:59:11;;;;;;;;;;;4.40;99.90;;;;;;2616470;47;20022;-73
2023/12/08 14:01:41;;;;;;;;;;;4.40;99.90;;;;;;2616609;39;20380;-71
2023/12/08 14:04:11;;;;;;;;;;;4.50;99.90;;;;;;2616526;54;19946;-71
2023/12/08 14:06:41;;;;;;;;;;;4.50;99.90;;;;;;2617128;39;20347;-70
2023/12/08 14:09:11;;;;;;;;;;;4.40;99.90;;;;;;2618139;46;19955;-71
2023/12/08 14:11:43;;;;;;;;;;;4.50;99.90;;;;;;2615614;54;19941;-71
2023/12/08 14:14:13;;;;;;;;;;;4.40;99.90;;;;;;2616586;54;19938;-71
2023/12/08 14:16:42;;;;;;;;;;;4.50;99.90;;;;;;2616113;39;20318;-71
2023/12/08 14:19:13;;;;;;;;;;;4.40;99.90;;;;;;2616117;39;20377;-71
2023/12/08 14:21:43;;;;;;;;;;;4.40;99.90;;;;;;2616218;54;19941;-73
2023/12/08 14:24:12;;;;;;;;;;;4.40;99.90;;;;;;2616019;54;20050;-71
2023/12/08 14:26:45;;;;;;;;;;;4.40;99.90;;;;;;2616453;54;20031;-71
2023/12/08 14:29:14;;;;;;;;;;;4.40;99.90;;;;;;2616495;54;20454;-71
2023/12/08 14:31:44;;;;;;;;;;;4.40;99.90;;;;;;2615452;47;19935;-71
2023/12/08 14:34:14;;;;;;;;;;;4.40;99.90;;;;;;2616505;39;20344;-71
2023/12/08 14:36:45;;;;;;;;;;;4.30;99.90;;;;;;2614709;47;19953;-70
2023/12/08 14:39:16;;;;;;;;;;;4.40;99.90;;;;;;2616587;54;19947;-72
2023/12/08 14:41:49;;;;;;;;;;;4.40;99.90;;;;;;2616601;54;20069;-72
2023/12/08 14:44:19;;;;;;;;;;;4.40;99.90;;;;;;2617513;54;19939;-72
2023/12/08 14:46:49;;;;;;;;;;;4.40;99.90;;;;;;2619234;39;20345;-72
2023/12/08 14:49:19;;;;;;;;;;;4.40;99.90;;;;;;2617118;39;20377;-71
2023/12/08 14:51:49;;;;;;;;;;;4.50;99.90;;;;;;2617062;54;19942;-71
2023/12/08 14:54:18;;;;;;;;;;;4.40;99.90;;;;;;2616761;54;19950;-73
2023/12/08 14:56:57;;;;;;;;;;;4.40;99.90;;;;;;2616053;54;20531;-70
2023/12/08 14:59:27;;;;;;;;;;;4.50;99.90;;;;;;2617632;54;19947;-70
2023/12/08 15:01:57;;;;;;;;;;;4.50;99.90;;;;;;2617337;54;19953;-70
2023/12/08 15:04:27;;;;;;;;;;;4.40;99.90;;;;;;2616976;39;20536;-71
2023/12/08 15:06:57;;;;;;;;;;;4.50;99.90;;;;;;2617546;47;19998;-70
2023/12/08 15:09:27;;;;;;;;;;;4.40;99.90;;;;;;2616627;54;19941;-70
2023/12/08 15:11:59;;;;;;;;;;;4.40;99.90;;;;;;2618299;39;20322;-71
2023/12/08 15:14:29;;;;;;;;;;;4.40;99.90;;;;;;2621880;47;19991;-70
2023/12/08 15:16:58;;;;;;;;;;;4.30;99.90;;;;;;2625282;39;20453;-71
2023/12/08 15:19:28;;;;;;;;;;;4.30;99.90;;;;;;2619121;54;19946;-70
2023/12/08 15:21:59;;;;;;;;;;;4.30;99.90;;;;;;2617567;47;19950;-72
2023/12/08 15:24:29;;;;;;;;;;;4.40;99.90;;;;;;2618988;54;19938;-72
2023/12/08 15:27:02;;;;;;;;;;;4.40;99.90;;;;;;2620060;47;19969;-73
2023/12/08 15:29:31;;;;;;;;;;;4.40;99.90;;;;;;2616578;54;19967;-72
2023/12/08 15:32:01;;;;;;;;;;;4.40;99.90;;;;;;2616458;47;19958;-73
2023/12/08 15:34:31;;;;;;;;;;;4.40;99.90;;;;;;2616925;47;19954;-72
2023/12/08 15:37:00;;;;;;;;;;;4.40;99.90;;;;;;2618249;47;19950;-71
2023/12/08 15:39:30;;;;;;;;;;;4.40;99.90;;;;;;2616572;54;19939;-75
2023/12/08 15:42:02;;;;;;;;;;;4.40;99.90;;;;;;2616507;54;19973;-71